createdAt,value
2022-11-21T00:00:52.168Z,46.80
2022-11-21T00:03:40.764Z,46.87
2022-11-21T00:06:29.396Z,46.73
2022-11-21T00:09:18.213Z,46.79
2022-11-21T00:12:07.350Z,46.78
2022-11-21T00:14:57.384Z,46.64
2022-11-21T00:17:45.957Z,46.53
2022-11-21T00:20:35.862Z,46.89
2022-11-21T00:23:28.218Z,47.07
2022-11-21T00:26:18.191Z,46.83
2022-11-21T00:29:07.081Z,46.68
2022-11-21T00:31:57.143Z,46.57
2022-11-21T00:34:45.756Z,46.86
2022-11-21T00:37:34.454Z,46.94
2022-11-21T00:40:23.077Z,47.11
2022-11-21T00:43:11.780Z,46.66
2022-11-21T00:46:02.517Z,47.04
2022-11-21T00:48:52.619Z,46.65
2022-11-21T00:51:41.231Z,46.93
2022-11-21T00:54:29.973Z,47.09
2022-11-21T00:57:18.655Z,46.68
2022-11-21T01:00:08.470Z,47.06
2022-11-21T01:02:57.067Z,46.96
2022-11-21T01:05:46.982Z,46.92
2022-11-21T01:08:36.965Z,46.73
2022-11-21T01:11:25.580Z,46.85
2022-11-21T01:14:14.181Z,46.79
2022-11-21T01:17:02.774Z,46.47
2022-11-21T01:19:51.998Z,46.91
2022-11-21T01:22:42.068Z,46.89
2022-11-21T01:25:30.644Z,46.80
2022-11-21T01:28:19.246Z,46.98
2022-11-21T01:31:09.154Z,46.82
2022-11-21T01:33:59.177Z,46.96
2022-11-21T01:36:47.834Z,46.95
2022-11-21T01:39:37.840Z,46.81
2022-11-21T01:46:03.162Z,47.24
2022-11-21T01:48:54.191Z,47.11
2022-11-21T01:51:46.929Z,47.13
2022-11-21T01:54:40.711Z,47.25
2022-11-21T01:57:31.910Z,47.44
2022-11-21T02:00:22.570Z,47.20
2022-11-21T02:03:14.257Z,47.15
2022-11-21T02:06:02.964Z,47.22
2022-11-21T02:08:51.839Z,47.35
2022-11-21T02:11:44.075Z,46.96
2022-11-21T02:14:33.560Z,47.11
2022-11-21T02:17:22.184Z,47.00
2022-11-21T02:20:14.272Z,47.27
2022-11-21T02:23:07.716Z,47.33
2022-11-21T02:25:57.791Z,47.14
2022-11-21T02:28:46.383Z,47.05
2022-11-21T02:31:34.988Z,47.31
2022-11-21T02:34:23.601Z,47.19
2022-11-21T02:37:12.394Z,47.15
2022-11-21T02:40:03.349Z,47.37
2022-11-21T02:42:59.817Z,46.84
2022-11-21T02:45:48.703Z,47.43
2022-11-21T02:48:38.026Z,47.03
2022-11-21T02:51:26.754Z,46.94
2022-11-21T02:54:15.431Z,47.24
2022-11-21T02:57:04.055Z,46.86
2022-11-21T02:59:54.033Z,47.26
2022-11-21T03:02:42.731Z,47.11
2022-11-21T03:05:31.458Z,47.44
2022-11-21T03:08:20.087Z,47.23
2022-11-21T03:11:08.716Z,47.23
2022-11-21T03:13:57.291Z,47.01
2022-11-21T03:16:47.290Z,47.16
2022-11-21T03:19:35.906Z,47.08
2022-11-21T03:22:25.248Z,47.25
2022-11-21T03:25:13.865Z,47.07
2022-11-21T03:28:02.454Z,47.05
2022-11-21T03:30:51.022Z,47.11
2022-11-21T03:33:40.921Z,46.80
2022-11-21T03:36:29.558Z,46.85
2022-11-21T03:39:18.146Z,47.15
2022-11-21T03:42:06.917Z,47.04
2022-11-21T03:44:55.559Z,47.21
2022-11-21T03:47:44.139Z,47.20
2022-11-21T03:50:34.180Z,46.98
2022-11-21T03:53:22.752Z,47.00
2022-11-21T03:56:11.371Z,46.94
2022-11-21T03:58:59.921Z,47.22
2022-11-21T04:01:48.590Z,47.21
2022-11-21T04:04:37.268Z,47.38
2022-11-21T04:07:27.384Z,46.97
2022-11-21T04:10:16.740Z,47.40
2022-11-21T04:13:05.374Z,47.24
2022-11-21T04:15:53.919Z,47.22
2022-11-21T04:18:42.504Z,47.20
2022-11-21T04:21:31.187Z,46.95
2022-11-21T04:24:21.125Z,46.91
2022-11-21T04:27:09.728Z,46.93
2022-11-21T04:29:58.252Z,47.08
2022-11-21T04:32:47.621Z,47.06
2022-11-21T04:35:36.259Z,47.17
2022-11-21T04:38:24.865Z,46.91
2022-11-21T04:41:14.859Z,47.05
2022-11-21T04:44:03.421Z,46.98
2022-11-21T04:46:53.170Z,47.16
2022-11-21T04:49:41.788Z,47.16
2022-11-21T04:52:30.426Z,47.45
2022-11-21T04:55:19.385Z,47.36
2022-11-21T04:58:09.413Z,47.10
2022-11-21T05:00:58.087Z,47.16
2022-11-21T05:03:46.800Z,46.96
2022-11-21T05:06:35.358Z,47.23
2022-11-21T05:09:23.997Z,47.17
2022-11-21T05:12:30.368Z,47.05
2022-11-21T05:15:24.658Z,47.20
2022-11-21T05:18:13.950Z,47.16
2022-11-21T05:21:03.422Z,47.14
2022-11-21T05:23:52.106Z,46.86
2022-11-21T05:26:40.763Z,46.92
2022-11-21T05:29:29.362Z,46.98
2022-11-21T05:32:19.311Z,47.00
2022-11-21T05:35:08.634Z,46.50
2022-11-21T05:37:58.003Z,46.62
2022-11-21T05:40:46.596Z,47.43
2022-11-21T05:43:47.238Z,47.16
2022-11-21T05:46:35.880Z,47.71
2022-11-21T05:49:25.959Z,47.74
2022-11-21T05:52:14.594Z,47.66
2022-11-21T05:55:03.259Z,47.24
2022-11-21T05:57:51.924Z,47.53
2022-11-21T06:00:40.630Z,47.78
2022-11-21T06:03:31.038Z,47.51
2022-11-21T06:06:24.886Z,47.54
2022-11-21T06:09:13.975Z,47.45
2022-11-21T06:12:02.623Z,47.51
2022-11-21T06:14:51.467Z,47.36
2022-11-21T06:17:40.614Z,46.96
2022-11-21T06:20:29.227Z,47.04
2022-11-21T06:23:20.304Z,47.39
2022-11-21T06:26:10.824Z,46.96
2022-11-21T06:28:59.578Z,47.35
2022-11-21T06:31:48.421Z,47.60
2022-11-21T06:34:37.120Z,47.41
2022-11-21T06:37:25.888Z,47.52
2022-11-21T06:40:16.633Z,46.99
2022-11-21T06:43:05.446Z,47.57
2022-11-21T06:45:54.234Z,47.79
2022-11-21T06:48:43.350Z,47.41
2022-11-21T06:51:32.078Z,47.35
2022-11-21T06:54:20.712Z,47.49
2022-11-21T06:57:10.828Z,47.59
2022-11-21T06:59:59.474Z,47.58
2022-11-21T07:02:48.451Z,47.52
2022-11-21T07:05:37.393Z,47.73
2022-11-21T07:08:27.210Z,47.50
2022-11-21T07:11:25.261Z,47.42
2022-11-21T07:14:15.391Z,47.16
2022-11-21T07:17:03.963Z,47.30
2022-11-21T07:19:52.899Z,47.50
2022-11-21T07:22:41.528Z,47.18
2022-11-21T07:25:35.238Z,47.31
2022-11-21T07:28:25.104Z,47.72
2022-11-21T07:31:15.060Z,47.27
2022-11-21T07:34:03.622Z,47.42
2022-11-21T07:36:52.185Z,47.78
2022-11-21T07:39:40.871Z,47.35
2022-11-21T07:42:29.437Z,47.16
2022-11-21T07:45:18.480Z,47.53
2022-11-21T07:48:09.326Z,47.35
2022-11-21T07:50:57.926Z,47.35
2022-11-21T07:53:46.563Z,47.48
2022-11-21T07:56:35.989Z,47.49
2022-11-21T07:59:24.719Z,47.23
2022-11-21T08:02:20.381Z,47.21
2022-11-21T08:05:10.830Z,47.61
2022-11-21T08:07:59.866Z,47.47
2022-11-21T08:10:48.439Z,47.21
2022-11-21T08:13:37.347Z,47.30
2022-11-21T08:16:27.972Z,47.33
2022-11-21T08:19:16.597Z,47.20
2022-11-21T08:22:06.549Z,47.56
2022-11-21T08:24:55.245Z,47.16
2022-11-21T08:27:43.857Z,47.32
2022-11-21T08:30:32.500Z,47.49
2022-11-21T08:33:21.147Z,47.06
2022-11-21T08:36:10.161Z,47.45
2022-11-21T08:39:00.899Z,47.43
2022-11-21T08:42:04.666Z,47.46
2022-11-21T08:44:53.244Z,46.94
2022-11-21T08:47:41.852Z,47.61
2022-11-21T08:50:31.846Z,47.18
2022-11-21T08:53:20.454Z,47.01
2022-11-21T08:56:10.428Z,47.00
2022-11-21T08:58:59.248Z,47.06
2022-11-21T09:01:47.890Z,47.46
2022-11-21T09:04:36.529Z,47.06
2022-11-21T09:07:25.156Z,46.99
2022-11-21T09:10:14.151Z,47.03
2022-11-21T09:13:04.036Z,47.37
2022-11-21T09:16:09.621Z,47.00
2022-11-21T09:18:58.223Z,47.00
2022-11-21T09:21:47.159Z,46.98
2022-11-21T09:24:35.792Z,47.25
2022-11-21T09:27:24.364Z,47.03
2022-11-21T09:30:15.102Z,47.29
2022-11-21T09:33:04.041Z,47.30
2022-11-21T09:35:52.658Z,46.95
2022-11-21T09:38:41.210Z,47.01
2022-11-21T09:41:51.869Z,47.34
2022-11-21T09:44:58.632Z,47.30
2022-11-21T09:47:50.097Z,47.09
2022-11-21T09:50:41.729Z,47.52
2022-11-21T09:53:34.512Z,47.37
2022-11-21T09:56:24.619Z,47.42
2022-11-21T09:59:26.899Z,47.21
2022-11-21T10:02:16.924Z,47.18
2022-11-21T10:05:14.417Z,47.36
2022-11-21T10:08:07.784Z,47.23
2022-11-21T10:10:58.217Z,47.33
2022-11-21T10:13:55.195Z,47.24
2022-11-21T10:16:46.419Z,47.20
2022-11-21T10:19:47.717Z,47.23
2022-11-21T10:22:49.307Z,47.20
2022-11-21T10:25:39.219Z,47.05
2022-11-21T10:28:35.064Z,47.00
2022-11-21T10:31:24.274Z,47.19
2022-11-21T10:34:14.746Z,47.40
2022-11-21T10:37:12.063Z,47.42
2022-11-21T10:40:14.594Z,47.04
2022-11-21T10:43:22.195Z,46.98
2022-11-21T10:46:10.950Z,47.13
2022-11-21T10:49:01.863Z,47.07
2022-11-21T10:51:54.652Z,47.21
2022-11-21T10:55:09.619Z,47.21
2022-11-21T10:57:58.224Z,47.52
2022-11-21T11:00:58.146Z,47.24
2022-11-21T11:04:06.961Z,47.24
2022-11-21T11:06:55.418Z,47.29
2022-11-21T11:09:46.932Z,47.35
2022-11-21T11:12:54.618Z,47.03
2022-11-21T11:15:55.861Z,47.31
2022-11-21T11:18:49.223Z,47.32
2022-11-21T11:21:45.217Z,47.24
2022-11-21T11:24:33.879Z,47.07
2022-11-21T11:27:29.138Z,47.21
2022-11-21T11:30:21.334Z,47.25
2022-11-21T11:33:37.675Z,47.36
2022-11-21T11:36:39.561Z,47.07
2022-11-21T11:39:38.822Z,47.46
2022-11-21T11:43:04.384Z,47.17
2022-11-21T11:46:26.938Z,47.11
2022-11-21T11:49:21.136Z,47.36
2022-11-21T11:52:12.253Z,46.96
2022-11-21T11:55:05.387Z,46.95
2022-11-21T11:57:56.611Z,47.44
2022-11-21T12:00:49.250Z,47.01
2022-11-21T12:03:43.560Z,47.19
2022-11-21T12:07:10.733Z,47.13
2022-11-21T12:09:49.101Z,47.32
2022-11-21T12:12:40.171Z,47.04
2022-11-21T12:15:50.871Z,47.03
2022-11-21T12:18:49.413Z,47.42
2022-11-21T12:21:38.002Z,47.24
2022-11-21T12:24:26.609Z,47.43
2022-11-21T12:27:26.455Z,47.11
2022-11-21T12:30:52.667Z,47.10
2022-11-21T12:33:49.637Z,47.10
2022-11-21T12:36:42.727Z,47.38
2022-11-21T12:39:53.230Z,46.97
2022-11-21T12:42:52.584Z,46.89
2022-11-21T12:45:48.009Z,46.91
2022-11-21T12:49:10.093Z,47.22
2022-11-21T12:52:32.089Z,47.31
2022-11-21T12:55:32.213Z,46.94
2022-11-21T12:58:29.235Z,47.23
2022-11-21T13:01:22.164Z,47.34
2022-11-21T13:04:17.096Z,47.01
2022-11-21T13:07:06.227Z,46.96
2022-11-21T13:09:55.847Z,47.19
2022-11-21T13:12:47.770Z,47.29
2022-11-21T13:15:42.179Z,47.04
2022-11-21T13:18:33.295Z,46.86
2022-11-21T13:21:43.452Z,47.33
2022-11-21T13:24:57.782Z,47.06
2022-11-21T13:27:46.496Z,47.06
2022-11-21T13:30:35.219Z,46.95
2022-11-21T13:33:53.659Z,47.33
2022-11-21T13:36:45.078Z,47.09
2022-11-21T13:39:38.335Z,46.94
2022-11-21T13:42:58.213Z,46.68
2022-11-21T13:45:56.617Z,47.16
2022-11-21T13:49:00.868Z,47.18
2022-11-21T13:51:54.867Z,47.28
2022-11-21T13:55:09.977Z,46.98
2022-11-21T13:58:05.728Z,47.29
2022-11-21T14:01:05.207Z,46.82
2022-11-21T14:04:09.332Z,46.97
2022-11-21T14:07:22.818Z,47.03
2022-11-21T14:10:21.631Z,46.69
2022-11-21T14:13:21.302Z,46.54
2022-11-21T14:16:22.831Z,34.76
2022-11-21T14:19:15.202Z,31.39
2022-11-21T14:22:05.243Z,33.91
2022-11-21T14:24:54.316Z,36.01
2022-11-21T14:27:45.500Z,37.42
2022-11-21T14:30:37.609Z,37.80
2022-11-21T14:33:31.960Z,38.50
2022-11-21T14:36:22.160Z,38.43
2022-11-21T14:42:35.625Z,39.11
2022-11-21T14:45:25.362Z,38.83
2022-11-21T14:48:14.440Z,38.95
2022-11-21T14:51:03.187Z,39.12
2022-11-21T14:53:53.702Z,39.30
2022-11-21T14:56:43.844Z,39.05
2022-11-21T14:59:34.636Z,38.81
2022-11-21T15:02:25.214Z,39.08
2022-11-21T15:05:34.220Z,39.06
2022-11-21T15:11:37.109Z,40.14
2022-11-21T15:14:32.421Z,40.52
2022-11-21T15:17:23.278Z,41.32
2022-11-21T15:20:21.513Z,41.79
2022-11-21T15:23:28.777Z,42.19
2022-11-21T15:26:30.611Z,42.34
2022-11-21T15:29:22.719Z,42.40
2022-11-21T15:32:16.725Z,41.84
2022-11-21T15:35:32.182Z,41.25
2022-11-21T15:38:24.836Z,40.73
2022-11-21T15:41:28.118Z,40.58
2022-11-21T15:44:22.245Z,40.48
2022-11-21T15:47:10.983Z,40.32
2022-11-21T15:50:01.501Z,40.56
2022-11-21T15:52:51.847Z,40.43
2022-11-21T15:55:40.432Z,40.23
2022-11-21T15:58:29.142Z,40.23
2022-11-21T16:01:20.134Z,40.33
2022-11-21T16:04:10.876Z,40.70
2022-11-21T16:07:00.913Z,40.73
2022-11-21T16:09:50.035Z,40.65
2022-11-21T16:12:38.618Z,40.86
2022-11-21T16:15:28.771Z,40.78
2022-11-21T16:18:17.421Z,40.71
2022-11-21T16:21:07.585Z,41.61
2022-11-21T16:24:01.256Z,42.90
2022-11-21T16:26:53.480Z,42.68
2022-11-21T16:29:42.084Z,42.13
2022-11-21T16:32:30.756Z,42.08
2022-11-21T16:35:19.567Z,41.80
2022-11-21T16:38:09.012Z,41.43
2022-11-21T16:41:00.152Z,41.48
2022-11-21T16:43:50.384Z,41.37
2022-11-21T16:46:43.498Z,41.31
2022-11-21T16:49:32.482Z,41.61
2022-11-21T16:52:21.065Z,42.40
2022-11-21T16:55:10.366Z,41.60
2022-11-21T16:58:00.403Z,41.79
2022-11-21T17:00:49.161Z,41.85
2022-11-21T17:03:38.286Z,41.96
2022-11-21T17:06:28.253Z,42.08
2022-11-21T17:09:17.270Z,42.28
2022-11-21T17:12:06.317Z,42.36
2022-11-21T17:14:56.304Z,42.37
2022-11-21T17:17:44.929Z,42.74
2022-11-21T17:20:33.775Z,43.04
2022-11-21T17:23:22.399Z,43.16
2022-11-21T17:26:12.344Z,43.81
2022-11-21T17:29:03.392Z,42.96
2022-11-21T17:31:53.449Z,43.21
2022-11-21T17:34:42.148Z,43.68
2022-11-21T17:37:30.872Z,43.46
2022-11-21T17:40:19.793Z,43.86
2022-11-21T17:43:08.445Z,44.06
2022-11-21T17:46:04.944Z,43.53
2022-11-21T17:48:59.117Z,43.83
2022-11-21T17:51:50.469Z,43.12
2022-11-21T17:54:42.494Z,43.28
2022-11-21T17:57:31.211Z,42.75
2022-11-21T18:00:20.127Z,42.33
2022-11-21T18:03:08.689Z,41.80
2022-11-21T18:06:05.760Z,42.44
2022-11-21T18:08:54.534Z,42.21
2022-11-21T18:11:43.190Z,41.94
2022-11-21T18:14:31.993Z,42.31
2022-11-21T18:17:20.711Z,42.20
2022-11-21T18:20:10.775Z,42.92
2022-11-21T18:23:00.678Z,43.61
2022-11-21T18:25:49.331Z,43.62
2022-11-21T18:28:37.966Z,43.27
2022-11-21T18:31:28.089Z,43.72
2022-11-21T18:34:16.739Z,42.96
2022-11-21T18:37:05.489Z,43.12
2022-11-21T18:39:55.503Z,43.64
2022-11-21T18:42:44.109Z,42.98
2022-11-21T18:45:35.427Z,42.82
2022-11-21T18:48:24.073Z,42.56
2022-11-21T18:51:14.076Z,42.18
2022-11-21T18:54:05.333Z,42.73
2022-11-21T18:56:56.987Z,42.11
2022-11-21T18:59:47.153Z,42.11
2022-11-21T19:02:35.867Z,42.05
2022-11-21T19:05:24.578Z,42.05
2022-11-21T19:08:13.204Z,42.32
2022-11-21T19:11:03.837Z,42.28
2022-11-21T19:13:54.478Z,42.65
2022-11-21T19:16:43.100Z,43.11
2022-11-21T19:19:34.653Z,43.07
2022-11-21T19:22:27.523Z,43.56
2022-11-21T19:25:16.258Z,44.06
2022-11-21T19:28:05.530Z,43.78
2022-11-21T19:30:55.507Z,43.75
2022-11-21T19:33:44.193Z,44.05
2022-11-21T19:36:32.770Z,44.23
2022-11-21T19:39:21.416Z,44.78
2022-11-21T19:42:10.009Z,45.49
2022-11-21T19:44:59.778Z,45.79
2022-11-21T19:47:56.832Z,45.95
2022-11-21T19:50:52.797Z,45.49
2022-11-21T19:53:44.050Z,45.65
2022-11-21T19:56:32.681Z,45.50
2022-11-21T19:59:21.771Z,45.51
2022-11-21T20:02:16.804Z,45.68
2022-11-21T20:05:07.572Z,45.24
2022-11-21T20:08:02.971Z,45.49
2022-11-21T20:10:53.582Z,45.18
2022-11-21T20:13:42.393Z,44.99
2022-11-21T20:16:32.610Z,45.14
2022-11-21T20:19:22.750Z,44.73
2022-11-21T20:22:12.673Z,44.55
2022-11-21T20:25:01.364Z,44.59
2022-11-21T20:27:49.948Z,44.46
2022-11-21T20:30:38.545Z,44.36
2022-11-21T20:33:27.162Z,44.79
2022-11-21T20:36:18.665Z,45.02
2022-11-21T20:39:11.540Z,45.41
2022-11-21T20:42:00.447Z,45.72
2022-11-21T20:47:58.387Z,45.92
2022-11-21T20:54:03.757Z,45.22
2022-11-21T20:56:54.700Z,45.80
2022-11-21T20:59:46.726Z,45.74
2022-11-21T21:02:35.416Z,45.77
2022-11-21T21:05:25.966Z,46.10
2022-11-21T21:08:14.750Z,46.12
2022-11-21T21:11:06.605Z,46.22
2022-11-21T21:13:56.862Z,45.80
2022-11-21T21:16:45.432Z,45.89
2022-11-21T21:19:34.059Z,46.16
2022-11-21T21:22:22.705Z,45.69
2022-11-21T21:25:11.661Z,46.00
2022-11-21T21:28:00.240Z,46.27
2022-11-21T21:30:50.600Z,46.27
2022-11-21T21:33:39.450Z,46.26
2022-11-21T21:36:29.061Z,46.68
2022-11-21T21:39:17.727Z,46.29
2022-11-21T21:42:06.591Z,46.53
2022-11-21T21:44:55.405Z,46.99
2022-11-21T21:47:45.518Z,46.72
2022-11-21T21:50:34.133Z,46.97
2022-11-21T21:53:22.837Z,46.96
2022-11-21T21:56:11.771Z,46.79
2022-11-21T21:59:00.612Z,46.60
2022-11-21T22:01:49.449Z,47.16
2022-11-21T22:04:39.798Z,47.13
2022-11-21T22:07:28.591Z,46.78
2022-11-21T22:10:17.522Z,47.17
2022-11-21T22:13:06.186Z,46.91
2022-11-21T22:15:56.769Z,46.88
2022-11-21T22:18:45.612Z,46.83
2022-11-21T22:21:37.127Z,46.95
2022-11-21T22:24:26.994Z,46.70
2022-11-21T22:27:16.086Z,46.96
2022-11-21T22:30:05.165Z,46.98
2022-11-21T22:32:54.322Z,47.16
2022-11-21T22:35:43.047Z,46.88
2022-11-21T22:38:33.707Z,46.84
2022-11-21T22:41:23.636Z,47.23
2022-11-21T22:44:12.321Z,46.88
2022-11-21T22:47:01.146Z,46.95
2022-11-21T22:49:49.797Z,47.14
2022-11-21T22:52:38.505Z,47.15
2022-11-21T22:55:28.543Z,47.08
2022-11-21T22:58:17.111Z,47.26
2022-11-21T23:01:07.490Z,46.69
2022-11-21T23:03:57.353Z,47.25
2022-11-21T23:06:46.056Z,47.21
2022-11-21T23:09:35.197Z,46.88
2022-11-21T23:12:25.560Z,47.20
2022-11-21T23:15:14.166Z,46.86
2022-11-21T23:18:02.751Z,46.80
2022-11-21T23:20:51.490Z,46.79
2022-11-21T23:23:40.377Z,46.94
2022-11-21T23:26:28.992Z,46.81
2022-11-21T23:29:18.978Z,47.21
2022-11-21T23:32:07.889Z,47.37
2022-11-21T23:34:56.596Z,46.46
2022-11-21T23:37:45.215Z,47.20
2022-11-21T23:40:33.865Z,47.33
2022-11-21T23:43:22.453Z,47.17
2022-11-21T23:46:12.551Z,47.20
2022-11-21T23:49:01.225Z,46.73
2022-11-21T23:51:49.844Z,47.24
2022-11-21T23:54:38.420Z,46.79
2022-11-21T23:57:27.094Z,46.80
